Time;durP1;ratioP1;P1;durP2;ratioP2;P2;SDS_P1;SDS_P2;PMS_P1;PMS_P2;Temp;Humidity;BMP_temperature;BMP_pressure;BME280_temperature;BME280_humidity;BME280_pressure;Samples;Min_cycle;Max_cycle;Signal;HPM_P1;HPM_P2
2022/07/08 00:01:05;;;;;;;2.10;1.90;;;;;;;12.45;100.00;94060.38;2082052;28;20068;-88
2022/07/08 00:02:07;;;;;;;2.17;1.58;;;;;;;12.54;100.00;94060.63;2085158;28;20028;-88
2022/07/08 00:03:08;;;;;;;5.53;1.83;;;;;;;12.55;100.00;94062.13;2074153;28;20119;-89
2022/07/08 00:04:09;;;;;;;4.18;2.15;;;;;;;12.61;100.00;94057.09;2066068;28;20065;-87
2022/07/08 00:05:10;;;;;;;4.93;1.50;;;;;;;12.59;100.00;94056.72;2066313;28;20081;-90
2022/07/08 00:06:11;;;;;;;3.53;2.05;;;;;;;12.64;100.00;94058.94;2071286;28;20077;-90
2022/07/08 00:07:12;;;;;;;4.35;2.00;;;;;;;12.72;100.00;94060.38;2082279;28;20474;-88
2022/07/08 00:08:13;;;;;;;2.60;1.70;;;;;;;12.59;100.00;94059.41;2076929;28;20028;-88
2022/07/08 00:09:14;;;;;;;2.30;1.70;;;;;;;12.48;100.00;94064.94;2082242;28;20025;-90
2022/07/08 00:10:15;;;;;;;3.63;1.70;;;;;;;12.45;100.00;94055.00;2066176;28;20030;-89
2022/07/08 00:11:17;;;;;;;2.63;1.80;;;;;;;12.49;100.00;94061.09;2057912;28;20429;-87
2022/07/08 00:12:18;;;;;;;2.53;1.73;;;;;;;12.50;100.00;94057.22;2066309;28;20037;-90
2022/07/08 00:13:19;;;;;;;3.42;1.77;;;;;;;12.50;100.00;94054.56;2070234;28;20558;-89
2022/07/08 00:14:20;;;;;;;1.75;1.60;;;;;;;12.45;100.00;94054.25;2066288;28;20022;-91
2022/07/08 00:15:21;;;;;;;2.97;1.77;;;;;;;12.39;100.00;94050.53;2082469;28;20032;-89
2022/07/08 00:16:22;;;;;;;2.38;1.88;;;;;;;12.33;100.00;94050.19;2068281;28;20113;-90
2022/07/08 00:17:23;;;;;;;4.28;1.67;;;;;;;12.23;100.00;94046.50;2058082;28;20030;-89
2022/07/08 00:18:24;;;;;;;1.90;1.70;;;;;;;12.22;100.00;94053.03;2066021;28;20587;-87
2022/07/08 00:19:25;;;;;;;2.75;1.98;;;;;;;12.21;100.00;94048.06;2074036;28;20036;-86
2022/07/08 00:20:26;;;;;;;2.67;1.80;;;;;;;12.25;100.00;94048.78;2057948;28;20462;-88
2022/07/08 00:21:27;;;;;;;3.60;1.73;;;;;;;12.25;100.00;94054.16;2066983;28;20022;-90
2022/07/08 00:22:28;;;;;;;3.15;1.85;;;;;;;12.10;100.00;94051.63;2074166;28;20056;-88
2022/07/08 00:23:29;;;;;;;3.17;1.88;;;;;;;12.14;100.00;94046.22;2082306;28;20032;-89
2022/07/08 00:24:30;;;;;;;4.70;2.25;;;;;;;12.07;100.00;94054.34;2090506;28;20509;-88
2022/07/08 00:25:31;;;;;;;1.70;1.60;;;;;;;11.99;100.00;94047.59;2082105;28;20080;-90
2022/07/08 00:26:32;;;;;;;2.38;1.52;;;;;;;12.05;100.00;94054.00;2074119;28;20022;-88
2022/07/08 00:27:33;;;;;;;3.08;1.63;;;;;;;12.01;100.00;94048.69;2058125;28;20026;-88
2022/07/08 00:28:34;;;;;;;1.85;1.70;;;;;;;12.01;100.00;94051.38;2073980;28;20022;-88
2022/07/08 00:29:35;;;;;;;2.38;1.77;;;;;;;11.94;100.00;94059.50;2074128;28;20517;-87
2022/07/08 00:30:36;;;;;;;1.65;1.55;;;;;;;11.96;100.00;94051.06;2072876;28;20026;-88
2022/07/08 00:31:37;;;;;;;2.20;2.00;;;;;;;11.96;100.00;94059.09;2072662;28;20060;-88
2022/07/08 00:32:38;;;;;;;3.60;1.73;;;;;;;11.93;100.00;94055.28;2064440;28;20419;-90
2022/07/08 00:33:39;;;;;;;4.78;1.80;;;;;;;11.94;100.00;94059.50;2061636;28;20030;-89
2022/07/08 00:34:40;;;;;;;7.10;1.80;;;;;;;11.93;100.00;94059.88;2076083;28;20499;-89
2022/07/08 00:35:41;;;;;;;3.97;1.70;;;;;;;11.91;100.00;94062.97;2075516;28;20037;-87
2022/07/08 00:36:42;;;;;;;3.55;1.70;;;;;;;11.93;100.00;94065.25;2061307;28;20098;-88
2022/07/08 00:37:43;;;;;;;2.22;1.67;;;;;;;11.92;100.00;94059.13;2068437;28;20113;-86
2022/07/08 00:38:44;;;;;;;3.40;2.10;;;;;;;11.89;100.00;94065.28;2077422;28;20013;-88
2022/07/08 00:39:45;;;;;;;2.45;2.17;;;;;;;11.89;100.00;94059.91;2082310;28;20071;-90
2022/07/08 00:40:45;;;;;;;3.45;2.10;;;;;;;12.02;100.00;94062.84;2075287;28;20026;-88
2022/07/08 00:41:46;;;;;;;3.35;1.95;;;;;;;11.95;100.00;94063.69;2082981;28;20041;-88
2022/07/08 00:42:48;;;;;;;1.70;1.60;;;;;;;12.00;100.00;94059.81;2069384;28;20118;-87
2022/07/08 00:43:49;;;;;;;2.08;1.88;;;;;;;11.88;100.00;94063.00;2066399;28;20053;-89
2022/07/08 00:44:51;;;;;;;3.20;1.90;;;;;;;11.80;100.00;94064.97;2073204;28;20117;-88
2022/07/08 00:45:52;;;;;;;2.97;2.17;;;;;;;11.78;100.00;94065.38;2074244;28;20022;-87
2022/07/08 00:46:53;;;;;;;1.98;1.85;;;;;;;11.72;100.00;94063.53;2079217;28;20054;-89
2022/07/08 00:47:54;;;;;;;2.95;2.13;;;;;;;11.79;100.00;94066.91;2068751;28;20034;-87
2022/07/08 00:48:55;;;;;;;3.13;1.80;;;;;;;11.97;100.00;94063.28;2077521;28;20130;-87
2022/07/08 00:49:55;;;;;;;3.13;1.92;;;;;;;11.79;100.00;94069.56;2081028;28;20014;-88
2022/07/08 00:51:02;;;;;;;5.47;2.10;;;;;;;11.74;100.00;94066.59;2075818;28;20027;-88
2022/07/08 00:52:04;;;;;;;3.50;2.03;;;;;;;11.67;100.00;94063.97;2070370;28;20426;-89
2022/07/08 00:53:05;;;;;;;1.70;1.60;;;;;;;11.69;100.00;94072.38;2073986;28;20489;-90
2022/07/08 00:54:06;;;;;;;2.33;2.13;;;;;;;11.73;100.00;94062.38;2072693;28;20025;-87
2022/07/08 00:55:08;;;;;;;2.20;1.98;;;;;;;11.72;100.00;94074.25;2074091;28;20520;-88
2022/07/08 00:56:10;;;;;;;2.90;2.20;;;;;;;11.76;100.00;94072.28;2073911;28;20116;-87
2022/07/08 00:57:12;;;;;;;2.38;1.98;;;;;;;11.78;100.00;94072.66;2065619;28;20033;-89
2022/07/08 00:58:14;;;;;;;4.65;1.85;;;;;;;11.71;100.00;94072.72;2065884;28;20439;-90
2022/07/08 00:59:15;;;;;;;3.17;2.00;;;;;;;11.71;100.00;94073.47;2073949;28;20037;-89
2022/07/08 01:00:16;;;;;;;2.97;2.03;;;;;;;11.71;100.00;94070.03;2073657;28;20052;-87
2022/07/08 01:01:18;;;;;;;4.10;2.15;;;;;;;11.67;100.00;94069.31;2065747;28;20108;-87
2022/07/08 01:02:19;;;;;;;3.67;2.13;;;;;;;11.68;100.00;94071.63;2079508;28;20027;-90
2022/07/08 01:03:20;;;;;;;6.55;2.20;;;;;;;11.75;100.00;94076.88;2072981;28;20502;-88
2022/07/08 01:04:21;;;;;;;2.53;2.17;;;;;;;11.64;100.00;94078.19;2073998;28;20064;-88
2022/07/08 01:05:22;;;;;;;3.53;1.95;;;;;;;11.54;100.00;94071.75;2066140;28;20054;-88
2022/07/08 01:06:23;;;;;;;3.80;1.73;;;;;;;11.38;100.00;94072.28;2061078;28;20042;-90
2022/07/08 01:07:26;;;;;;;5.25;2.30;;;;;;;11.27;100.00;94075.06;2057184;28;20039;-87
2022/07/08 01:08:27;;;;;;;3.58;2.15;;;;;;;11.28;100.00;94075.81;2067389;28;20082;-89
2022/07/08 01:09:28;;;;;;;2.58;1.90;;;;;;;11.28;100.00;94073.13;2073896;28;20076;-88
2022/07/08 01:10:29;;;;;;;3.08;2.20;;;;;;;11.41;100.00;94078.75;2070485;28;20026;-90
2022/07/08 01:11:31;;;;;;;4.60;2.22;;;;;;;11.34;100.00;94072.31;2065784;28;20117;-89
2022/07/08 01:12:32;;;;;;;2.70;2.25;;;;;;;11.22;100.00;94080.09;2058151;28;20570;-90
2022/07/08 01:13:33;;;;;;;2.22;1.98;;;;;;;11.09;100.00;94075.22;2065397;28;20027;-87
2022/07/08 01:14:34;;;;;;;1.98;1.88;;;;;;;11.12;100.00;94076.34;2080735;28;20047;-89
2022/07/08 01:15:35;;;;;;;3.50;2.25;;;;;;;11.03;100.00;94078.72;2071920;28;20021;-90
2022/07/08 01:16:36;;;;;;;4.38;2.10;;;;;;;10.81;100.00;94078.13;2075799;28;20490;-88
2022/07/08 01:17:44;;;;;;;2.33;2.00;;;;;;;10.80;100.00;94077.34;2072418;28;20045;-87
2022/07/08 01:18:45;;;;;;;3.35;2.00;;;;;;;10.72;100.00;94075.88;2065373;28;20029;-90
2022/07/08 01:19:46;;;;;;;3.90;2.28;;;;;;;10.54;100.00;94075.25;2060384;28;20027;-89
2022/07/08 01:20:47;;;;;;;2.25;2.00;;;;;;;10.55;100.00;94084.78;2073693;28;20498;-90
2022/07/08 01:21:48;;;;;;;4.38;1.88;;;;;;;10.46;100.00;94079.09;2073794;28;20024;-89
2022/07/08 01:22:49;;;;;;;2.22;1.95;;;;;;;10.55;100.00;94076.75;2058253;28;20030;-88
2022/07/08 01:23:50;;;;;;;2.25;1.95;;;;;;;10.37;100.00;94076.84;2065739;28;20034;-88
2022/07/08 01:24:51;;;;;;;2.10;1.95;;;;;;;10.44;100.00;94084.06;2067546;28;20026;-90
2022/07/08 01:25:53;;;;;;;3.53;1.85;;;;;;;10.48;100.00;94082.88;2078536;28;20148;-89
2022/07/08 01:26:56;;;;;;;2.38;1.70;;;;;;;10.49;100.00;94089.00;2077394;28;20022;-88
2022/07/08 01:27:59;;;;;;;4.95;1.80;;;;;;;10.47;100.00;94085.97;2065732;28;20046;-89
2022/07/08 01:29:00;;;;;;;2.35;2.13;;;;;;;10.45;100.00;94088.28;2059519;28;20031;-90
2022/07/08 01:30:02;;;;;;;3.47;1.90;;;;;;;10.41;100.00;94085.63;2065649;28;20038;-88
2022/07/08 01:31:04;;;;;;;2.55;2.03;;;;;;;10.23;100.00;94090.28;2073898;28;20473;-91
2022/07/08 01:32:05;;;;;;;2.30;1.85;;;;;;;10.19;100.00;94087.59;2082178;28;20021;-88
2022/07/08 01:33:06;;;;;;;3.63;2.10;;;;;;;10.19;100.00;94081.50;2074628;28;20403;-89
2022/07/08 01:34:07;;;;;;;2.20;2.00;;;;;;;10.21;100.00;94081.88;2077096;28;20036;-88
2022/07/08 01:35:09;;;;;;;2.30;2.10;;;;;;;10.29;100.00;94078.03;2077577;28;20052;-85
2022/07/08 01:36:10;;;;;;;3.15;1.90;;;;;;;10.27;100.00;94088.34;2079536;28;20391;-86
2022/07/08 01:37:11;;;;;;;8.20;2.28;;;;;;;10.20;100.00;94078.44;2085033;28;20053;-87
2022/07/08 01:38:12;;;;;;;3.00;1.80;;;;;;;10.19;100.00;94076.91;2084622;28;20021;-89
2022/07/08 01:39:12;;;;;;;3.95;2.33;;;;;;;10.13;100.00;94080.38;2076724;28;20378;-88
2022/07/08 01:40:13;;;;;;;3.28;1.85;;;;;;;10.12;100.00;94084.19;2065551;28;20022;-88
2022/07/08 01:41:14;;;;;;;3.92;2.00;;;;;;;9.92;100.00;94083.88;2071898;28;20471;-87
2022/07/08 01:42:16;;;;;;;1.90;1.80;;;;;;;9.92;100.00;94089.22;2073465;28;20911;-90
2022/07/08 01:43:17;;;;;;;1.95;1.67;;;;;;;9.93;100.00;94093.44;2081700;28;20375;-88
2022/07/08 01:44:18;;;;;;;5.13;1.95;;;;;;;9.77;100.00;94088.53;2088371;28;20017;-88
2022/07/08 01:45:19;;;;;;;2.47;2.05;;;;;;;9.72;100.00;94097.69;2065210;28;20448;-86
2022/07/08 01:46:20;;;;;;;2.58;1.60;;;;;;;9.81;100.00;94095.38;2072668;28;20092;-87
2022/07/08 01:47:21;;;;;;;2.05;1.90;;;;;;;9.81;100.00;94102.63;2073449;28;20498;-88
2022/07/08 01:48:22;;;;;;;2.95;1.90;;;;;;;9.71;100.00;94100.75;2065429;28;20085;-88
2022/07/08 01:49:23;;;;;;;2.00;1.80;;;;;;;9.68;100.00;94096.19;2057292;28;20018;-89
2022/07/08 01:50:24;;;;;;;5.13;1.92;;;;;;;9.72;100.00;94103.03;2061485;28;20061;-90
2022/07/08 01:51:25;;;;;;;2.28;1.65;;;;;;;9.67;100.00;94100.75;2066571;28;20030;-90
2022/07/08 01:52:26;;;;;;;2.03;1.80;;;;;;;9.73;100.00;94098.44;2073437;28;20448;-88
2022/07/08 01:53:27;;;;;;;1.70;1.60;;;;;;;9.70;100.00;94100.00;2071972;28;20119;-89
2022/07/08 01:54:28;;;;;;;2.95;2.00;;;;;;;9.64;100.00;94098.84;2074087;28;20018;-88
2022/07/08 01:55:29;;;;;;;3.35;2.33;;;;;;;9.65;100.00;94102.28;2079350;28;20025;-88
2022/07/08 01:56:30;;;;;;;2.72;2.38;;;;;;;9.67;100.00;94108.00;2071508;28;20471;-87
2022/07/08 01:57:31;;;;;;;2.40;2.20;;;;;;;9.52;100.00;94104.59;2077850;28;20025;-89
2022/07/08 01:58:32;;;;;;;2.38;1.90;;;;;;;9.56;100.00;94100.00;2087930;28;20029;-87
2022/07/08 01:59:33;;;;;;;2.22;2.10;;;;;;;9.63;100.00;94105.34;2084737;28;20013;-91
2022/07/08 02:00:34;;;;;;;3.22;1.90;;;;;;;9.66;100.00;94106.47;2075417;28;20057;-89
2022/07/08 02:01:35;;;;;;;3.85;2.17;;;;;;;9.71;100.00;94106.09;2077206;28;20026;-89
2022/07/08 02:02:36;;;;;;;3.10;1.90;;;;;;;9.69;100.00;94103.03;2070101;28;20034;-90
2022/07/08 02:03:37;;;;;;;2.50;1.90;;;;;;;9.77;100.00;94104.53;2065323;28;20109;-90
2022/07/08 02:04:38;;;;;;;2.22;2.05;;;;;;;9.71;100.00;94106.09;2060866;28;20034;-90
2022/07/08 02:05:39;;;;;;;2.33;2.13;;;;;;;9.66;100.00;94099.25;2065365;28;20411;-89
2022/07/08 02:06:40;;;;;;;2.90;1.98;;;;;;;9.69;100.00;94106.47;2064957;28;20026;-86
2022/07/08 02:07:42;;;;;;;2.88;2.00;;;;;;;9.70;100.00;94109.88;2073264;28;20069;-89
2022/07/08 02:08:43;;;;;;;2.20;2.00;;;;;;;9.72;100.00;94111.03;2081553;28;20032;-89
2022/07/08 02:09:44;;;;;;;2.30;1.85;;;;;;;9.74;100.00;94105.31;2083661;28;20025;-90
2022/07/08 02:14:12;;;;;;;;;;;;;;;9.64;100.00;94104.19;2138335;27;20166;-81
2022/07/08 02:15:13;;;;;;;3.55;2.13;;;;;;;9.65;100.00;94107.63;2121241;28;20015;-81
2022/07/08 02:16:14;;;;;;;2.55;2.42;;;;;;;9.66;100.00;94099.25;2104301;28;20035;-82
2022/07/08 02:17:19;;;;;;;2.25;1.92;;;;;;;9.75;100.00;94110.28;2112935;27;20023;-81
2022/07/08 02:18:20;;;;;;;1.92;1.80;;;;;;;9.59;100.00;94102.66;2129895;27;20555;-81
2022/07/08 02:19:22;;;;;;;6.55;2.10;;;;;;;9.59;100.00;94107.25;2129523;27;20026;-81
2022/07/08 02:20:22;;;;;;;2.95;2.03;;;;;;;9.64;100.00;94106.84;2121106;28;20039;-81
2022/07/08 02:21:23;;;;;;;2.20;2.10;;;;;;;9.63;100.00;94104.59;2129744;27;20015;-81
2022/07/08 02:22:25;;;;;;;2.67;2.13;;;;;;;9.66;100.00;94109.13;2130439;27;20027;-81
2022/07/08 02:23:26;;;;;;;2.83;1.98;;;;;;;9.67;100.00;94108.00;2130317;27;20472;-81
2022/07/08 02:24:27;;;;;;;3.53;1.90;;;;;;;9.66;100.00;94103.78;2120835;28;20024;-81
2022/07/08 02:25:28;;;;;;;3.55;2.28;;;;;;;9.61;100.00;94101.53;2104456;28;20067;-80
2022/07/08 02:26:29;;;;;;;3.38;2.15;;;;;;;9.60;100.00;94108.78;2112774;27;20027;-81
2022/07/08 02:27:31;;;;;;;3.63;2.25;;;;;;;9.52;100.00;94104.59;2121229;27;20031;-81
2022/07/08 02:28:31;;;;;;;2.20;1.98;;;;;;;9.57;100.00;94102.31;2121050;28;20479;-81
2022/07/08 02:29:33;;;;;;;2.53;1.98;;;;;;;9.64;100.00;94106.84;2121031;27;20011;-80
2022/07/08 02:30:34;;;;;;;5.53;2.15;;;;;;;9.78;100.00;94114.06;2130277;27;20023;-80
2022/07/08 02:31:35;;;;;;;2.95;2.45;;;;;;;9.95;100.00;94117.84;2129588;27;20026;-81
2022/07/08 02:32:36;;;;;;;2.30;2.10;;;;;;;10.04;100.00;94113.59;2121125;27;20034;-82
2022/07/08 02:33:37;;;;;;;3.42;2.28;;;;;;;10.16;100.00;94120.44;2110618;28;20062;-81
2022/07/08 02:34:38;;;;;;;2.60;2.40;;;;;;;10.29;100.00;94121.56;2112554;27;20514;-82
2022/07/08 02:35:39;;;;;;;6.97;3.00;;;;;;;10.37;100.00;94118.88;2129654;27;20056;-81
2022/07/08 02:36:40;;;;;;;4.22;2.88;;;;;;;10.33;100.00;94124.97;2129549;27;20126;-80
2022/07/08 02:37:41;;;;;;;3.13;2.67;;;;;;;10.43;100.00;94119.97;2129424;27;20019;-81
2022/07/08 02:38:42;;;;;;;4.43;2.72;;;;;;;10.60;100.00;94116.44;2121134;28;20034;-81
2022/07/08 02:39:43;;;;;;;6.25;2.55;;;;;;;10.73;100.00;94127.44;2121107;27;20019;-82
2022/07/08 02:40:44;;;;;;;8.73;2.92;;;;;;;10.82;100.00;94125.09;2130388;27;20069;-80
2022/07/08 02:41:45;;;;;;;6.00;3.00;;;;;;;10.84;100.00;94123.56;2129422;27;20027;-82
2022/07/08 02:42:45;;;;;;;10.45;3.55;;;;;;;10.87;100.00;94124.69;2129335;27;20545;-80
2022/07/08 02:43:46;;;;;;;9.80;3.30;;;;;;;10.94;100.00;94132.66;2129219;27;20023;-81
2022/07/08 02:44:47;;;;;;;7.00;3.28;;;;;;;10.95;100.00;94128.81;2120676;27;20095;-81
2022/07/08 02:45:48;;;;;;;7.10;3.03;;;;;;;11.07;100.00;94128.38;2120615;27;20051;-80
2022/07/08 02:46:49;;;;;;;6.15;3.10;;;;;;;11.06;100.00;94123.38;2120537;27;20414;-81
2022/07/08 02:47:51;;;;;;;5.82;2.95;;;;;;;11.10;100.00;94127.56;2120974;27;20057;-82
2022/07/08 02:48:51;;;;;;;7.38;3.25;;;;;;;11.13;100.00;94130.63;2129831;27;20382;-81
2022/07/08 02:49:52;;;;;;;9.60;3.40;;;;;;;11.13;100.00;94135.97;2130056;27;20023;-81
2022/07/08 02:50:53;;;;;;;7.65;3.13;;;;;;;11.16;100.00;94132.53;2129313;27;20019;-81
2022/07/08 02:51:54;;;;;;;6.25;2.95;;;;;;;11.15;100.00;94145.13;2120568;27;20027;-82
2022/07/08 02:53:13;;;;;;;8.55;3.30;;;;;;;11.13;100.00;94136.72;2129872;27;20440;-80
2022/07/08 02:54:15;;;;;;;10.68;3.75;;;;;;;11.21;100.00;94137.44;2129502;27;20076;-82
2022/07/08 02:55:16;;;;;;;9.52;3.10;;;;;;;11.22;100.00;94141.63;2129442;27;20427;-81
2022/07/08 02:56:17;;;;;;;7.53;3.35;;;;;;;11.26;100.00;94139.69;2130108;27;20091;-80
2022/07/08 02:57:18;;;;;;;10.77;3.80;;;;;;;11.26;100.00;94145.03;2128964;27;20018;-80
2022/07/08 02:58:19;;;;;;;10.00;3.17;;;;;;;11.20;100.00;94141.28;2120753;28;20032;-80
2022/07/08 02:59:20;;;;;;;10.70;3.40;;;;;;;11.22;100.00;94138.97;2113540;27;20024;-80
2022/07/08 03:00:22;;;;;;;11.82;3.67;;;;;;;11.15;100.00;94139.78;2129407;27;20019;-81
2022/07/08 03:01:23;;;;;;;11.02;3.42;;;;;;;11.13;100.00;94146.66;2120882;28;20027;-81
2022/07/08 03:02:24;;;;;;;8.10;2.90;;;;;;;11.06;100.00;94142.91;2121183;27;20019;-81
2022/07/08 03:03:25;;;;;;;9.07;3.10;;;;;;;11.02;100.00;94147.53;2129285;27;20051;-82
2022/07/08 03:04:26;;;;;;;12.52;3.33;;;;;;;11.00;100.00;94147.13;2129324;27;20073;-80
2022/07/08 03:05:28;;;;;;;11.98;3.80;;;;;;;11.12;100.00;94155.88;2129428;27;20459;-80
2022/07/08 03:06:32;;;;;;;9.57;3.00;;;;;;;11.04;100.00;94147.88;2120924;27;20053;-81
2022/07/08 03:07:33;;;;;;;10.63;3.20;;;;;;;11.15;100.00;94149.72;2129506;27;20023;-82
2022/07/08 03:08:34;;;;;;;12.32;3.70;;;;;;;11.22;100.00;94149.66;2124335;27;20030;-81
2022/07/08 03:09:34;;;;;;;5.95;2.95;;;;;;;11.22;100.00;94160.38;2105336;28;20056;-81
2022/07/08 03:10:35;;;;;;;15.63;3.03;;;;;;;11.21;100.00;94156.94;2112300;28;20020;-81
2022/07/08 03:11:36;;;;;;;8.05;3.08;;;;;;;11.18;100.00;94157.72;2120758;28;20030;-81
2022/07/08 03:12:37;;;;;;;10.43;3.30;;;;;;;11.22;100.00;94161.13;2128511;27;20084;-82
2022/07/08 03:13:38;;;;;;;15.88;3.72;;;;;;;11.16;100.00;94170.75;2127346;27;20091;-81
2022/07/08 03:14:39;;;;;;;13.35;3.40;;;;;;;10.99;100.00;94163.59;2120444;28;20027;-81
2022/07/08 03:15:40;;;;;;;14.27;3.35;;;;;;;11.10;100.00;94170.38;2113396;27;20031;-81
2022/07/08 03:16:41;;;;;;;9.38;3.30;;;;;;;11.13;100.00;94171.50;2129079;27;20358;-82
2022/07/08 03:17:42;;;;;;;9.75;3.28;;;;;;;11.14;100.00;94166.91;2125221;27;20030;-83
2022/07/08 03:18:44;;;;;;;11.10;3.45;;;;;;;11.19;100.00;94171.84;2124023;27;20027;-80
2022/07/08 03:19:45;;;;;;;14.20;3.47;;;;;;;11.20;100.00;94171.47;2124066;27;20030;-81
2022/07/08 03:20:46;;;;;;;7.72;3.33;;;;;;;11.25;100.00;94172.97;2112157;28;20810;-81
2022/07/08 03:21:47;;;;;;;10.98;4.32;;;;;;;11.25;100.00;94171.06;2108614;27;20035;-82
2022/07/08 03:22:48;;;;;;;11.70;3.83;;;;;;;11.26;100.00;94177.16;2129289;27;20023;-81
2022/07/08 03:23:48;;;;;;;10.52;4.03;;;;;;;11.23;100.00;94181.38;2126493;27;20023;-82
2022/07/08 03:24:50;;;;;;;13.43;3.70;;;;;;;11.25;100.00;94183.69;2118011;28;20425;-81
2022/07/08 03:25:51;;;;;;;12.23;3.78;;;;;;;11.26;100.00;94172.56;2108868;28;20028;-81
2022/07/08 03:26:52;;;;;;;18.75;3.85;;;;;;;11.32;100.00;94183.59;2114431;28;20023;-81
2022/07/08 03:27:53;;;;;;;7.10;3.17;;;;;;;11.30;100.00;94181.34;2090201;28;20028;-81
2022/07/08 03:28:54;;;;;;;9.32;4.25;;;;;;;11.27;100.00;94187.47;2098241;28;20023;-81
2022/07/08 03:29:55;;;;;;;10.75;3.35;;;;;;;11.41;100.00;94194.63;2114837;28;20105;-81
2022/07/08 03:30:57;;;;;;;15.82;4.15;;;;;;;11.32;100.00;94191.63;2111993;28;20026;-81
2022/07/08 03:31:58;;;;;;;13.85;4.65;;;;;;;11.20;100.00;94194.81;2107011;28;20023;-83
2022/07/08 03:32:59;;;;;;;8.43;3.47;;;;;;;11.13;100.00;94192.91;2123560;27;20060;-82
2022/07/08 03:34:00;;;;;;;10.60;4.07;;;;;;;11.03;100.00;94188.41;2123568;27;20031;-82
2022/07/08 03:35:01;;;;;;;12.70;4.15;;;;;;;11.03;100.00;94193.75;2112426;28;20027;-81
2022/07/08 03:36:03;;;;;;;12.95;4.07;;;;;;;11.09;100.00;94189.50;2111958;28;20499;-82
2022/07/08 03:37:04;;;;;;;10.88;5.03;;;;;;;11.08;100.00;94188.75;2118496;27;20030;-82
2022/07/08 03:38:04;;;;;;;9.13;3.83;;;;;;;11.19;100.00;94190.59;2110107;28;20129;-81
2022/07/08 03:39:05;;;;;;;14.35;4.32;;;;;;;11.10;100.00;94193.69;2103136;28;20031;-81
2022/07/08 03:41:26;;;;;;;7.65;3.72;;;;;;;10.99;100.00;94201.03;2111670;27;20480;-80
2022/07/08 03:42:27;;;;;;;14.35;4.40;;;;;;;11.02;100.00;94206.38;2104946;28;20027;-80
2022/07/08 03:43:28;;;;;;;9.95;3.60;;;;;;;11.14;100.00;94207.06;2102404;28;20032;-81
2022/07/08 03:44:29;;;;;;;14.07;4.63;;;;;;;11.03;100.00;94202.53;2111089;28;20031;-82
2022/07/08 03:45:30;;;;;;;10.68;4.35;;;;;;;11.02;100.00;94205.63;2100323;28;20073;-81
2022/07/08 03:46:31;;;;;;;10.50;4.47;;;;;;;11.27;100.00;94216.16;2099396;28;20451;-81
2022/07/08 03:47:34;;;;;;;13.52;4.93;;;;;;;11.09;100.00;94218.94;2122001;27;20510;-82
2022/07/08 03:48:35;;;;;;;15.43;5.20;;;;;;;11.00;100.00;94215.94;2120812;27;20424;-81
2022/07/08 03:49:36;;;;;;;14.85;5.05;;;;;;;11.02;100.00;94219.75;2103328;28;20024;-81
2022/07/08 03:50:37;;;;;;;14.82;5.40;;;;;;;10.87;100.00;94218.28;2111182;27;20020;-80
2022/07/08 03:51:38;;;;;;;16.10;5.05;;;;;;;10.98;100.00;94223.59;2117987;27;20020;-81
2022/07/08 03:52:39;;;;;;;11.80;4.55;;;;;;;10.83;100.00;94229.00;2119032;27;20061;-81
2022/07/08 03:53:40;;;;;;;9.57;4.78;;;;;;;10.88;100.00;94227.06;2117835;27;20041;-80
2022/07/08 03:54:41;;;;;;;9.38;4.43;;;;;;;10.83;100.00;94229.00;2119569;27;20027;-81
2022/07/08 03:55:42;;;;;;;12.38;5.22;;;;;;;10.68;100.00;94224.13;2119755;27;20031;-80
2022/07/08 03:56:43;;;;;;;9.45;5.32;;;;;;;10.84;100.00;94217.19;2114845;28;20538;-82
2022/07/08 03:57:44;;;;;;;9.77;5.18;;;;;;;10.99;100.00;94223.19;2113320;28;20028;-81
2022/07/08 03:58:45;;;;;;;13.95;5.10;;;;;;;10.86;100.00;94219.44;2109001;28;20024;-81
2022/07/08 03:59:46;;;;;;;8.30;4.50;;;;;;;10.77;100.00;94227.13;2106638;28;20035;-81
2022/07/08 04:00:47;;;;;;;19.70;4.90;;;;;;;10.80;100.00;94216.44;2107535;28;20523;-81
2022/07/08 04:01:48;;;;;;;11.93;5.35;;;;;;;10.87;100.00;94226.31;2110008;28;20507;-81
2022/07/08 04:02:49;;;;;;;14.93;4.90;;;;;;;10.86;100.00;94216.78;2112629;27;20098;-83
2022/07/08 04:03:50;;;;;;;10.07;5.25;;;;;;;10.84;100.00;94214.50;2112858;28;20518;-82
2022/07/08 04:04:51;;;;;;;15.95;4.53;;;;;;;10.78;100.00;94225.97;2102932;28;20035;-81
2022/07/08 04:05:52;;;;;;;11.90;5.00;;;;;;;10.81;100.00;94223.28;2111125;28;20546;-82
2022/07/08 04:06:53;;;;;;;10.18;5.30;;;;;;;10.79;100.00;94222.91;2117587;27;20051;-81
2022/07/08 04:07:54;;;;;;;8.80;4.60;;;;;;;10.87;100.00;94223.63;2116846;27;20511;-81
2022/07/08 04:08:55;;;;;;;10.73;4.93;;;;;;;10.91;100.00;94219.03;2097901;28;20024;-81
2022/07/08 04:09:56;;;;;;;8.93;4.40;;;;;;;10.87;100.00;94230.91;2106443;28;20202;-81
2022/07/08 04:10:58;;;;;;;11.65;5.07;;;;;;;10.83;100.00;94229.00;2111180;28;20042;-82
2022/07/08 04:11:59;;;;;;;11.38;4.72;;;;;;;10.81;100.00;94228.66;2116899;27;20035;-81
2022/07/08 04:13:00;;;;;;;19.58;4.60;;;;;;;10.85;100.00;94228.63;2116433;27;20024;-81
2022/07/08 04:14:01;;;;;;;11.10;4.57;;;;;;;10.91;100.00;94229.75;2114468;28;20046;-82
2022/07/08 04:15:02;;;;;;;15.52;4.78;;;;;;;10.94;100.00;94230.88;2106357;28;20074;-81
2022/07/08 04:16:05;;;;;;;13.88;4.22;;;;;;;11.03;100.00;94234.66;2109549;28;20055;-82
2022/07/08 04:17:06;;;;;;;13.80;4.70;;;;;;;10.98;100.00;94237.75;2123250;27;20030;-82
2022/07/08 04:18:31;;;;;;;13.57;4.88;;;;;;;10.99;100.00;94233.16;2114043;28;20058;-81
2022/07/08 04:19:35;;;;;;;21.88;4.85;;;;;;;10.83;100.00;94231.69;2106935;28;20020;-82
2022/07/08 04:20:38;;;;;;;10.95;4.40;;;;;;;10.84;100.00;94233.22;2104653;28;20024;-81
2022/07/08 04:21:40;;;;;;;13.82;6.00;;;;;;;10.92;100.00;94225.16;2096598;28;20025;-83
2022/07/08 04:22:40;;;;;;;10.93;4.45;;;;;;;10.91;100.00;94226.31;2094796;28;20012;-81
2022/07/08 04:23:41;;;;;;;15.38;4.30;;;;;;;10.85;100.00;94228.63;2097937;28;20086;-81
2022/07/08 04:24:50;;;;;;;13.38;5.22;;;;;;;10.80;100.00;94229.81;2111637;27;20088;-81
2022/07/08 04:25:51;;;;;;;13.88;4.28;;;;;;;10.98;100.00;94218.25;2116969;27;20022;-81
2022/07/08 04:26:52;;;;;;;14.10;4.32;;;;;;;11.04;100.00;94220.13;2110359;28;20098;-81
2022/07/08 04:27:54;;;;;;;13.30;5.05;;;;;;;10.95;100.00;94217.09;2109968;28;20043;-80
2022/07/08 04:28:55;;;;;;;11.90;4.50;;;;;;;10.93;100.00;94218.63;2113897;27;20108;-81
2022/07/08 04:29:56;;;;;;;15.23;4.90;;;;;;;10.90;100.00;94225.53;2097449;28;20028;-81
2022/07/08 04:30:57;;;;;;;11.30;4.75;;;;;;;11.07;100.00;94221.25;2096361;28;20021;-81
2022/07/08 04:31:58;;;;;;;13.05;4.75;;;;;;;10.99;100.00;94217.84;2105851;28;20050;-81
2022/07/08 04:33:03;;;;;;;14.05;4.63;;;;;;;10.96;100.00;94225.88;2113837;28;20617;-82
2022/07/08 04:34:04;;;;;;;12.50;4.25;;;;;;;10.90;100.00;94224.78;2112528;28;20114;-82
2022/07/08 04:35:05;;;;;;;18.40;5.18;;;;;;;10.81;100.00;94225.97;2113591;28;20034;-80
2022/07/08 04:36:07;;;;;;;14.75;4.82;;;;;;;10.85;100.00;94228.63;2109268;28;20058;-80
2022/07/08 04:37:08;;;;;;;16.00;4.63;;;;;;;10.88;100.00;94232.44;2104969;28;20094;-81
2022/07/08 04:38:09;;;;;;;15.65;5.22;;;;;;;10.92;100.00;94228.56;2117987;27;20464;-83
2022/07/08 04:39:10;;;;;;;12.63;4.25;;;;;;;10.87;100.00;94234.34;2115564;27;20023;-81
2022/07/08 04:40:11;;;;;;;11.85;4.53;;;;;;;10.91;100.00;94228.97;2116810;27;20050;-81
2022/07/08 04:41:12;;;;;;;17.77;4.78;;;;;;;10.91;100.00;94237.75;2108757;28;20023;-82
2022/07/08 04:42:13;;;;;;;12.05;4.28;;;;;;;10.92;100.00;94239.28;2098447;28;20520;-81
2022/07/08 04:43:14;;;;;;;11.20;4.47;;;;;;;10.91;100.00;94245.03;2112419;28;20731;-80
2022/07/08 04:44:15;;;;;;;20.45;5.95;;;;;;;10.92;100.00;94233.94;2110773;28;20099;-80
2022/07/08 04:45:16;;;;;;;13.73;5.15;;;;;;;10.76;100.00;94239.75;2113718;28;20023;-81
2022/07/08 04:46:16;;;;;;;17.77;6.75;;;;;;;10.79;100.00;94240.88;2112893;28;20547;-81
2022/07/08 04:47:17;;;;;;;18.77;6.05;;;;;;;11.00;100.00;94235.41;2110700;28;20032;-80
2022/07/08 04:48:18;;;;;;;14.32;4.70;;;;;;;10.97;100.00;94240.78;2105261;28;20055;-80
2022/07/08 04:49:20;;;;;;;14.40;4.80;;;;;;;10.90;100.00;94238.91;2111704;28;20494;-81
2022/07/08 04:50:21;;;;;;;7.47;4.00;;;;;;;11.07;100.00;94230.03;2117656;27;20027;-80